sensor_id;sensor_type;location;lat;lon;timestamp;temperature;humidity
65034;DHT22;51601;51.356;12.458;2023-07-31T00:01:06;15.80;99.90
65034;DHT22;51601;51.356;12.458;2023-07-31T00:05:24;15.90;99.90
65034;DHT22;51601;51.356;12.458;2023-07-31T00:09:43;15.90;99.90
65034;DHT22;51601;51.356;12.458;2023-07-31T00:14:00;16.00;99.90
65034;DHT22;51601;51.356;12.458;2023-07-31T00:18:18;16.10;99.90
65034;DHT22;51601;51.356;12.458;2023-07-31T00:22:37;16.10;99.90
65034;DHT22;51601;51.356;12.458;2023-07-31T00:26:56;16.10;99.90
65034;DHT22;51601;51.356;12.458;2023-07-31T00:31:16;16.10;99.90
65034;DHT22;51601;51.356;12.458;2023-07-31T00:35:34;16.10;99.90
65034;DHT22;51601;51.356;12.458;2023-07-31T00:39:52;16.00;99.90
65034;DHT22;51601;51.356;12.458;2023-07-31T00:44:11;16.00;99.90
65034;DHT22;51601;51.356;12.458;2023-07-31T00:48:28;16.00;99.90
65034;DHT22;51601;51.356;12.458;2023-07-31T00:52:46;16.00;99.90
65034;DHT22;51601;51.356;12.458;2023-07-31T00:57:04;16.00;99.90
65034;DHT22;51601;51.356;12.458;2023-07-31T01:01:27;16.10;99.90
65034;DHT22;51601;51.356;12.458;2023-07-31T01:05:53;16.20;99.90
65034;DHT22;51601;51.356;12.458;2023-07-31T01:10:18;16.30;99.90
65034;DHT22;51601;51.356;12.458;2023-07-31T01:14:38;16.30;99.90
65034;DHT22;51601;51.356;12.458;2023-07-31T01:18:57;16.40;99.90
65034;DHT22;51601;51.356;12.458;2023-07-31T01:23:32;16.50;99.90
65034;DHT22;51601;51.356;12.458;2023-07-31T01:27:56;16.50;99.90
65034;DHT22;51601;51.356;12.458;2023-07-31T01:32:19;16.50;99.90
65034;DHT22;51601;51.356;12.458;2023-07-31T01:36:39;16.50;99.90
65034;DHT22;51601;51.356;12.458;2023-07-31T01:40:57;16.70;99.60
65034;DHT22;51601;51.356;12.458;2023-07-31T01:45:16;16.70;99.10
65034;DHT22;51601;51.356;12.458;2023-07-31T01:49:36;16.80;98.70
65034;DHT22;51601;51.356;12.458;2023-07-31T01:53:54;16.80;98.30
65034;DHT22;51601;51.356;12.458;2023-07-31T01:58:12;16.80;98.40
65034;DHT22;51601;51.356;12.458;2023-07-31T02:02:31;16.90;98.80
65034;DHT22;51601;51.356;12.458;2023-07-31T02:06:48;16.80;99.10
65034;DHT22;51601;51.356;12.458;2023-07-31T02:11:06;16.90;99.60
65034;DHT22;51601;51.356;12.458;2023-07-31T02:15:24;16.80;99.90
65034;DHT22;51601;51.356;12.458;2023-07-31T02:19:44;16.80;99.90
65034;DHT22;51601;51.356;12.458;2023-07-31T02:24:04;16.70;99.90
65034;DHT22;51601;51.356;12.458;2023-07-31T02:28:21;16.70;99.90
65034;DHT22;51601;51.356;12.458;2023-07-31T02:32:39;16.60;99.90
65034;DHT22;51601;51.356;12.458;2023-07-31T02:36:59;16.60;99.90
65034;DHT22;51601;51.356;12.458;2023-07-31T02:41:16;16.60;99.70
65034;DHT22;51601;51.356;12.458;2023-07-31T02:45:34;16.60;99.20
65034;DHT22;51601;51.356;12.458;2023-07-31T02:49:52;16.60;99.10
65034;DHT22;51601;51.356;12.458;2023-07-31T02:54:11;16.70;98.90
65034;DHT22;51601;51.356;12.458;2023-07-31T02:58:28;16.70;98.90
65034;DHT22;51601;51.356;12.458;2023-07-31T03:02:46;16.70;98.90
65034;DHT22;51601;51.356;12.458;2023-07-31T03:07:04;16.70;98.90
65034;DHT22;51601;51.356;12.458;2023-07-31T03:11:23;16.70;98.90
65034;DHT22;51601;51.356;12.458;2023-07-31T03:15:42;16.60;98.90
65034;DHT22;51601;51.356;12.458;2023-07-31T03:20:01;16.70;98.80
65034;DHT22;51601;51.356;12.458;2023-07-31T03:24:19;16.60;98.90
65034;DHT22;51601;51.356;12.458;2023-07-31T03:28:39;16.60;98.70
65034;DHT22;51601;51.356;12.458;2023-07-31T03:32:55;16.60;98.80
65034;DHT22;51601;51.356;12.458;2023-07-31T03:37:13;16.60;99.00
65034;DHT22;51601;51.356;12.458;2023-07-31T03:41:31;16.60;99.10
65034;DHT22;51601;51.356;12.458;2023-07-31T03:45:51;16.50;99.70
65034;DHT22;51601;51.356;12.458;2023-07-31T03:50:11;16.40;99.90
65034;DHT22;51601;51.356;12.458;2023-07-31T03:54:29;16.40;99.90
65034;DHT22;51601;51.356;12.458;2023-07-31T03:58:47;16.30;99.90
65034;DHT22;51601;51.356;12.458;2023-07-31T04:03:06;16.10;99.90
65034;DHT22;51601;51.356;12.458;2023-07-31T04:07:23;16.00;99.90
65034;DHT22;51601;51.356;12.458;2023-07-31T04:11:41;15.90;99.90
65034;DHT22;51601;51.356;12.458;2023-07-31T04:15:59;15.90;99.90
65034;DHT22;51601;51.356;12.458;2023-07-31T04:20:18;15.80;99.90
65034;DHT22;51601;51.356;12.458;2023-07-31T04:24:35;15.80;99.90
65034;DHT22;51601;51.356;12.458;2023-07-31T04:28:53;15.80;99.90
65034;DHT22;51601;51.356;12.458;2023-07-31T04:33:11;15.80;99.90
65034;DHT22;51601;51.356;12.458;2023-07-31T04:37:30;15.70;99.90
65034;DHT22;51601;51.356;12.458;2023-07-31T04:41:47;15.70;99.90
65034;DHT22;51601;51.356;12.458;2023-07-31T04:46:05;15.70;99.90
65034;DHT22;51601;51.356;12.458;2023-07-31T04:50:23;15.80;99.90
65034;DHT22;51601;51.356;12.458;2023-07-31T04:54:43;15.70;99.90
65034;DHT22;51601;51.356;12.458;2023-07-31T04:58:59;15.70;99.90
65034;DHT22;51601;51.356;12.458;2023-07-31T05:03:17;15.70;99.90
65034;DHT22;51601;51.356;12.458;2023-07-31T05:07:36;15.70;99.90
65034;DHT22;51601;51.356;12.458;2023-07-31T05:11:55;15.70;99.90
65034;DHT22;51601;51.356;12.458;2023-07-31T05:16:12;15.70;99.90
65034;DHT22;51601;51.356;12.458;2023-07-31T05:20:30;15.70;99.90
65034;DHT22;51601;51.356;12.458;2023-07-31T05:24:48;15.70;99.90
65034;DHT22;51601;51.356;12.458;2023-07-31T05:29:07;15.80;99.90
65034;DHT22;51601;51.356;12.458;2023-07-31T05:33:27;15.70;99.90
65034;DHT22;51601;51.356;12.458;2023-07-31T05:37:45;15.70;99.90
65034;DHT22;51601;51.356;12.458;2023-07-31T05:42:04;15.70;99.90
65034;DHT22;51601;51.356;12.458;2023-07-31T05:46:22;15.70;99.90
65034;DHT22;51601;51.356;12.458;2023-07-31T05:50:39;15.70;99.90
65034;DHT22;51601;51.356;12.458;2023-07-31T05:54:57;15.70;99.90
65034;DHT22;51601;51.356;12.458;2023-07-31T05:59:16;15.70;99.90
65034;DHT22;51601;51.356;12.458;2023-07-31T06:03:35;15.80;99.90
65034;DHT22;51601;51.356;12.458;2023-07-31T06:07:51;15.80;99.90
65034;DHT22;51601;51.356;12.458;2023-07-31T06:12:09;15.90;99.90
65034;DHT22;51601;51.356;12.458;2023-07-31T06:16:27;15.90;99.90
65034;DHT22;51601;51.356;12.458;2023-07-31T06:20:47;16.00;99.90
65034;DHT22;51601;51.356;12.458;2023-07-31T06:25:10;16.10;99.90
65034;DHT22;51601;51.356;12.458;2023-07-31T06:29:31;16.20;99.90
65034;DHT22;51601;51.356;12.458;2023-07-31T06:33:49;16.30;99.90
65034;DHT22;51601;51.356;12.458;2023-07-31T06:38:08;16.40;99.90
65034;DHT22;51601;51.356;12.458;2023-07-31T06:42:25;16.50;99.90
65034;DHT22;51601;51.356;12.458;2023-07-31T06:46:43;16.60;99.90
65034;DHT22;51601;51.356;12.458;2023-07-31T06:51:01;16.80;99.90
65034;DHT22;51601;51.356;12.458;2023-07-31T06:55:21;17.00;99.90
65034;DHT22;51601;51.356;12.458;2023-07-31T06:59:40;17.10;99.90
65034;DHT22;51601;51.356;12.458;2023-07-31T07:03:59;17.10;99.90
65034;DHT22;51601;51.356;12.458;2023-07-31T07:08:16;17.20;99.90
65034;DHT22;51601;51.356;12.458;2023-07-31T07:12:36;17.20;99.90
65034;DHT22;51601;51.356;12.458;2023-07-31T07:16:53;17.30;99.90
65034;DHT22;51601;51.356;12.458;2023-07-31T07:21:11;17.30;99.90
65034;DHT22;51601;51.356;12.458;2023-07-31T07:25:32;17.30;99.90
65034;DHT22;51601;51.356;12.458;2023-07-31T07:29:51;17.30;99.90
65034;DHT22;51601;51.356;12.458;2023-07-31T07:34:11;17.40;99.90
65034;DHT22;51601;51.356;12.458;2023-07-31T07:38:29;17.40;99.90
65034;DHT22;51601;51.356;12.458;2023-07-31T07:42:47;17.50;99.90
65034;DHT22;51601;51.356;12.458;2023-07-31T07:47:07;17.60;99.90
65034;DHT22;51601;51.356;12.458;2023-07-31T07:51:23;17.60;99.90
65034;DHT22;51601;51.356;12.458;2023-07-31T07:55:41;17.70;99.90
65034;DHT22;51601;51.356;12.458;2023-07-31T07:59:59;17.80;99.90
65034;DHT22;51601;51.356;12.458;2023-07-31T08:04:31;17.90;99.90
65034;DHT22;51601;51.356;12.458;2023-07-31T08:08:48;18.10;99.90
65034;DHT22;51601;51.356;12.458;2023-07-31T08:13:06;18.20;99.90
65034;DHT22;51601;51.356;12.458;2023-07-31T08:17:24;18.20;99.90
65034;DHT22;51601;51.356;12.458;2023-07-31T08:21:43;18.30;99.90
65034;DHT22;51601;51.356;12.458;2023-07-31T08:26:00;18.30;99.90
65034;DHT22;51601;51.356;12.458;2023-07-31T08:30:18;18.40;99.90
65034;DHT22;51601;51.356;12.458;2023-07-31T08:34:40;18.50;99.90
65034;DHT22;51601;51.356;12.458;2023-07-31T08:38:58;18.50;99.90
65034;DHT22;51601;51.356;12.458;2023-07-31T08:43:15;18.60;99.90
65034;DHT22;51601;51.356;12.458;2023-07-31T08:47:33;18.70;99.90
65034;DHT22;51601;51.356;12.458;2023-07-31T08:51:52;18.80;99.90
65034;DHT22;51601;51.356;12.458;2023-07-31T08:56:13;19.00;99.90
65034;DHT22;51601;51.356;12.458;2023-07-31T09:00:32;19.10;99.20
65034;DHT22;51601;51.356;12.458;2023-07-31T09:04:52;19.20;98.10
65034;DHT22;51601;51.356;12.458;2023-07-31T09:09:10;19.30;98.10
65034;DHT22;51601;51.356;12.458;2023-07-31T09:13:30;19.40;97.60
65034;DHT22;51601;51.356;12.458;2023-07-31T09:17:59;19.50;97.30
65034;DHT22;51601;51.356;12.458;2023-07-31T09:22:16;19.60;96.60
65034;DHT22;51601;51.356;12.458;2023-07-31T09:26:35;19.70;94.60
65034;DHT22;51601;51.356;12.458;2023-07-31T09:30:54;19.70;94.20
65034;DHT22;51601;51.356;12.458;2023-07-31T09:35:18;19.80;94.60
65034;DHT22;51601;51.356;12.458;2023-07-31T09:39:46;19.80;94.20
65034;DHT22;51601;51.356;12.458;2023-07-31T09:44:05;19.70;94.40
65034;DHT22;51601;51.356;12.458;2023-07-31T09:48:24;19.70;94.60
65034;DHT22;51601;51.356;12.458;2023-07-31T09:52:44;19.70;94.70
65034;DHT22;51601;51.356;12.458;2023-07-31T09:57:02;19.80;94.30
65034;DHT22;51601;51.356;12.458;2023-07-31T10:01:20;19.70;93.40
65034;DHT22;51601;51.356;12.458;2023-07-31T10:05:42;19.70;93.30
65034;DHT22;51601;51.356;12.458;2023-07-31T10:10:00;19.60;93.30
65034;DHT22;51601;51.356;12.458;2023-07-31T10:14:21;19.60;93.50
65034;DHT22;51601;51.356;12.458;2023-07-31T10:18:40;19.70;95.30
65034;DHT22;51601;51.356;12.458;2023-07-31T10:23:01;19.70;96.00
65034;DHT22;51601;51.356;12.458;2023-07-31T10:27:21;19.90;96.20
65034;DHT22;51601;51.356;12.458;2023-07-31T10:31:39;20.00;96.40
65034;DHT22;51601;51.356;12.458;2023-07-31T10:36:12;20.30;95.70
65034;DHT22;51601;51.356;12.458;2023-07-31T10:40:32;20.70;94.40
65034;DHT22;51601;51.356;12.458;2023-07-31T10:44:57;21.20;93.20
65034;DHT22;51601;51.356;12.458;2023-07-31T10:49:21;21.40;88.40
65034;DHT22;51601;51.356;12.458;2023-07-31T10:53:40;21.60;84.10
65034;DHT22;51601;51.356;12.458;2023-07-31T10:58:07;21.60;81.80
65034;DHT22;51601;51.356;12.458;2023-07-31T11:02:26;21.70;81.10
65034;DHT22;51601;51.356;12.458;2023-07-31T11:06:56;21.80;80.60
65034;DHT22;51601;51.356;12.458;2023-07-31T11:11:16;22.00;78.90
65034;DHT22;51601;51.356;12.458;2023-07-31T11:15:36;22.30;79.40
65034;DHT22;51601;51.356;12.458;2023-07-31T11:19:56;22.60;79.60
65034;DHT22;51601;51.356;12.458;2023-07-31T11:24:14;23.10;75.10
65034;DHT22;51601;51.356;12.458;2023-07-31T11:28:33;23.60;71.30
65034;DHT22;51601;51.356;12.458;2023-07-31T11:32:52;24.10;69.00
65034;DHT22;51601;51.356;12.458;2023-07-31T11:37:11;24.50;66.80
65034;DHT22;51601;51.356;12.458;2023-07-31T11:41:29;24.80;64.20
65034;DHT22;51601;51.356;12.458;2023-07-31T11:45:48;24.90;63.00
65034;DHT22;51601;51.356;12.458;2023-07-31T11:50:10;24.80;63.00
65034;DHT22;51601;51.356;12.458;2023-07-31T11:54:30;24.90;62.90
65034;DHT22;51601;51.356;12.458;2023-07-31T11:58:51;25.10;62.60
65034;DHT22;51601;51.356;12.458;2023-07-31T12:03:09;25.00;60.60
65034;DHT22;51601;51.356;12.458;2023-07-31T12:07:43;24.80;60.60
65034;DHT22;51601;51.356;12.458;2023-07-31T12:12:00;24.60;61.10
65034;DHT22;51601;51.356;12.458;2023-07-31T12:16:18;24.30;61.00
65034;DHT22;51601;51.356;12.458;2023-07-31T12:20:43;24.20;62.70
65034;DHT22;51601;51.356;12.458;2023-07-31T12:25:02;24.00;64.30
65034;DHT22;51601;51.356;12.458;2023-07-31T12:29:22;23.90;64.70
65034;DHT22;51601;51.356;12.458;2023-07-31T12:33:40;23.90;64.40
65034;DHT22;51601;51.356;12.458;2023-07-31T12:38:01;23.80;63.60
65034;DHT22;51601;51.356;12.458;2023-07-31T12:42:20;23.80;64.00
65034;DHT22;51601;51.356;12.458;2023-07-31T12:46:37;23.90;63.80
65034;DHT22;51601;51.356;12.458;2023-07-31T12:50:58;24.00;63.10
65034;DHT22;51601;51.356;12.458;2023-07-31T12:55:16;24.10;62.50
65034;DHT22;51601;51.356;12.458;2023-07-31T12:59:36;24.30;62.10
65034;DHT22;51601;51.356;12.458;2023-07-31T13:03:56;24.30;61.20
65034;DHT22;51601;51.356;12.458;2023-07-31T13:08:17;24.30;61.10
65034;DHT22;51601;51.356;12.458;2023-07-31T13:12:34;24.20;61.10
65034;DHT22;51601;51.356;12.458;2023-07-31T13:16:54;24.10;61.60
65034;DHT22;51601;51.356;12.458;2023-07-31T13:21:14;24.10;61.80
65034;DHT22;51601;51.356;12.458;2023-07-31T13:25:32;24.10;61.60
65034;DHT22;51601;51.356;12.458;2023-07-31T13:29:53;24.10;61.40
65034;DHT22;51601;51.356;12.458;2023-07-31T13:34:14;24.10;61.80
65034;DHT22;51601;51.356;12.458;2023-07-31T13:38:35;24.10;60.60
65034;DHT22;51601;51.356;12.458;2023-07-31T13:42:53;24.00;59.10
65034;DHT22;51601;51.356;12.458;2023-07-31T13:47:11;24.00;59.00
65034;DHT22;51601;51.356;12.458;2023-07-31T13:51:31;24.10;58.70
65034;DHT22;51601;51.356;12.458;2023-07-31T13:55:53;24.10;58.40
65034;DHT22;51601;51.356;12.458;2023-07-31T14:00:13;24.10;58.10
65034;DHT22;51601;51.356;12.458;2023-07-31T14:04:33;24.00;58.20
65034;DHT22;51601;51.356;12.458;2023-07-31T14:08:55;23.90;58.20
65034;DHT22;51601;51.356;12.458;2023-07-31T14:13:15;23.90;58.40
65034;DHT22;51601;51.356;12.458;2023-07-31T14:17:33;23.80;59.00
65034;DHT22;51601;51.356;12.458;2023-07-31T14:21:53;23.80;59.30
65034;DHT22;51601;51.356;12.458;2023-07-31T14:26:29;23.70;59.40
65034;DHT22;51601;51.356;12.458;2023-07-31T14:30:49;23.60;59.70
65034;DHT22;51601;51.356;12.458;2023-07-31T14:35:07;23.40;60.00
65034;DHT22;51601;51.356;12.458;2023-07-31T14:39:25;23.20;60.50
65034;DHT22;51601;51.356;12.458;2023-07-31T14:43:44;23.10;60.90
65034;DHT22;51601;51.356;12.458;2023-07-31T14:48:01;23.00;61.20
65034;DHT22;51601;51.356;12.458;2023-07-31T14:52:19;22.80;61.50
65034;DHT22;51601;51.356;12.458;2023-07-31T14:56:37;22.80;61.90
65034;DHT22;51601;51.356;12.458;2023-07-31T15:00:56;22.90;61.70
65034;DHT22;51601;51.356;12.458;2023-07-31T15:05:16;22.90;61.20
65034;DHT22;51601;51.356;12.458;2023-07-31T15:09:34;22.80;60.50
65034;DHT22;51601;51.356;12.458;2023-07-31T15:13:52;22.70;60.70
65034;DHT22;51601;51.356;12.458;2023-07-31T15:18:12;22.70;60.90
65034;DHT22;51601;51.356;12.458;2023-07-31T15:22:31;22.60;60.80
65034;DHT22;51601;51.356;12.458;2023-07-31T15:26:49;22.50;61.10
65034;DHT22;51601;51.356;12.458;2023-07-31T15:31:08;22.50;61.60
65034;DHT22;51601;51.356;12.458;2023-07-31T15:35:27;22.50;61.70
65034;DHT22;51601;51.356;12.458;2023-07-31T15:39:44;22.50;61.60
65034;DHT22;51601;51.356;12.458;2023-07-31T15:44:05;22.50;61.60
65034;DHT22;51601;51.356;12.458;2023-07-31T15:48:23;22.40;61.60
65034;DHT22;51601;51.356;12.458;2023-07-31T15:52:45;22.40;61.90
65034;DHT22;51601;51.356;12.458;2023-07-31T15:57:06;22.40;62.10
65034;DHT22;51601;51.356;12.458;2023-07-31T16:01:27;22.30;62.30
65034;DHT22;51601;51.356;12.458;2023-07-31T16:05:44;22.30;62.70
65034;DHT22;51601;51.356;12.458;2023-07-31T16:10:05;22.40;62.90
65034;DHT22;51601;51.356;12.458;2023-07-31T16:14:23;22.40;63.00
65034;DHT22;51601;51.356;12.458;2023-07-31T16:18:42;22.40;63.10
65034;DHT22;51601;51.356;12.458;2023-07-31T16:22:59;22.50;63.00
65034;DHT22;51601;51.356;12.458;2023-07-31T16:27:19;22.40;63.00
65034;DHT22;51601;51.356;12.458;2023-07-31T16:31:39;22.40;63.10
65034;DHT22;51601;51.356;12.458;2023-07-31T16:36:12;22.40;63.00
65034;DHT22;51601;51.356;12.458;2023-07-31T16:40:30;22.30;63.30
65034;DHT22;51601;51.356;12.458;2023-07-31T16:44:49;22.30;63.50
65034;DHT22;51601;51.356;12.458;2023-07-31T16:49:06;22.20;63.70
65034;DHT22;51601;51.356;12.458;2023-07-31T16:53:24;22.20;63.90
65034;DHT22;51601;51.356;12.458;2023-07-31T16:57:42;22.20;64.10
65034;DHT22;51601;51.356;12.458;2023-07-31T17:02:02;22.20;64.40
65034;DHT22;51601;51.356;12.458;2023-07-31T17:06:21;22.20;64.40
65034;DHT22;51601;51.356;12.458;2023-07-31T17:10:40;22.30;64.60
65034;DHT22;51601;51.356;12.458;2023-07-31T17:14:58;22.30;64.50
65034;DHT22;51601;51.356;12.458;2023-07-31T17:19:17;22.30;64.40
65034;DHT22;51601;51.356;12.458;2023-07-31T17:23:34;22.30;64.50
65034;DHT22;51601;51.356;12.458;2023-07-31T17:27:52;22.30;64.50
65034;DHT22;51601;51.356;12.458;2023-07-31T17:32:13;22.30;64.60
65034;DHT22;51601;51.356;12.458;2023-07-31T17:36:32;22.20;64.90
65034;DHT22;51601;51.356;12.458;2023-07-31T17:40:51;22.10;65.10
65034;DHT22;51601;51.356;12.458;2023-07-31T17:45:10;22.10;65.30
65034;DHT22;51601;51.356;12.458;2023-07-31T17:49:28;22.00;65.60
65034;DHT22;51601;51.356;12.458;2023-07-31T17:53:47;21.90;65.80
65034;DHT22;51601;51.356;12.458;2023-07-31T17:58:04;21.90;66.10
65034;DHT22;51601;51.356;12.458;2023-07-31T18:02:22;21.80;66.40
65034;DHT22;51601;51.356;12.458;2023-07-31T18:06:40;21.70;66.60
65034;DHT22;51601;51.356;12.458;2023-07-31T18:11:00;21.70;66.70
65034;DHT22;51601;51.356;12.458;2023-07-31T18:15:23;21.60;66.70
65034;DHT22;51601;51.356;12.458;2023-07-31T18:19:41;21.60;66.90
65034;DHT22;51601;51.356;12.458;2023-07-31T18:23:59;21.50;66.90
65034;DHT22;51601;51.356;12.458;2023-07-31T18:28:18;21.50;67.00
65034;DHT22;51601;51.356;12.458;2023-07-31T18:32:38;21.50;67.20
65034;DHT22;51601;51.356;12.458;2023-07-31T18:36:56;21.50;67.30
65034;DHT22;51601;51.356;12.458;2023-07-31T18:41:15;21.40;67.60
65034;DHT22;51601;51.356;12.458;2023-07-31T18:45:34;21.30;67.90
65034;DHT22;51601;51.356;12.458;2023-07-31T18:49:53;21.30;68.30
65034;DHT22;51601;51.356;12.458;2023-07-31T18:54:12;21.20;68.50
65034;DHT22;51601;51.356;12.458;2023-07-31T18:58:29;21.10;68.80
65034;DHT22;51601;51.356;12.458;2023-07-31T19:02:49;21.10;69.00
65034;DHT22;51601;51.356;12.458;2023-07-31T19:07:09;21.10;69.10
65034;DHT22;51601;51.356;12.458;2023-07-31T19:11:27;21.10;69.30
65034;DHT22;51601;51.356;12.458;2023-07-31T19:15:48;21.00;69.30
65034;DHT22;51601;51.356;12.458;2023-07-31T19:20:08;21.00;69.30
65034;DHT22;51601;51.356;12.458;2023-07-31T19:24:30;21.00;69.50
65034;DHT22;51601;51.356;12.458;2023-07-31T19:29:00;21.00;69.60
65034;DHT22;51601;51.356;12.458;2023-07-31T19:33:18;21.00;69.80
65034;DHT22;51601;51.356;12.458;2023-07-31T19:37:38;20.90;69.90
65034;DHT22;51601;51.356;12.458;2023-07-31T19:41:57;20.90;70.00
65034;DHT22;51601;51.356;12.458;2023-07-31T19:46:15;20.90;70.20
65034;DHT22;51601;51.356;12.458;2023-07-31T19:50:34;20.90;70.30
65034;DHT22;51601;51.356;12.458;2023-07-31T19:54:54;20.90;70.30
65034;DHT22;51601;51.356;12.458;2023-07-31T19:59:13;20.80;70.40
65034;DHT22;51601;51.356;12.458;2023-07-31T20:03:31;20.80;70.50
65034;DHT22;51601;51.356;12.458;2023-07-31T20:07:49;20.80;70.60
65034;DHT22;51601;51.356;12.458;2023-07-31T20:12:12;20.80;70.70
65034;DHT22;51601;51.356;12.458;2023-07-31T20:16:31;20.70;70.80
65034;DHT22;51601;51.356;12.458;2023-07-31T20:20:52;20.70;70.80
65034;DHT22;51601;51.356;12.458;2023-07-31T20:25:10;20.70;70.80
65034;DHT22;51601;51.356;12.458;2023-07-31T20:29:30;20.70;70.70
65034;DHT22;51601;51.356;12.458;2023-07-31T20:33:50;20.70;70.70
65034;DHT22;51601;51.356;12.458;2023-07-31T20:38:08;20.60;70.80
65034;DHT22;51601;51.356;12.458;2023-07-31T20:42:26;20.60;70.90
65034;DHT22;51601;51.356;12.458;2023-07-31T20:46:46;20.50;71.20
65034;DHT22;51601;51.356;12.458;2023-07-31T20:51:05;20.50;71.40
65034;DHT22;51601;51.356;12.458;2023-07-31T20:55:23;20.50;71.70
65034;DHT22;51601;51.356;12.458;2023-07-31T20:59:41;20.50;71.90
65034;DHT22;51601;51.356;12.458;2023-07-31T21:04:00;20.50;72.00
65034;DHT22;51601;51.356;12.458;2023-07-31T21:08:20;20.40;72.30
65034;DHT22;51601;51.356;12.458;2023-07-31T21:12:38;20.40;72.50
65034;DHT22;51601;51.356;12.458;2023-07-31T21:16:56;20.40;72.80
65034;DHT22;51601;51.356;12.458;2023-07-31T21:21:16;20.40;73.00
65034;DHT22;51601;51.356;12.458;2023-07-31T21:25:33;20.40;73.40
65034;DHT22;51601;51.356;12.458;2023-07-31T21:29:50;20.40;73.90
65034;DHT22;51601;51.356;12.458;2023-07-31T21:34:08;20.40;74.60
65034;DHT22;51601;51.356;12.458;2023-07-31T21:38:28;20.40;75.30
65034;DHT22;51601;51.356;12.458;2023-07-31T21:42:44;20.40;77.00
65034;DHT22;51601;51.356;12.458;2023-07-31T21:47:03;20.40;79.20
65034;DHT22;51601;51.356;12.458;2023-07-31T21:51:21;20.30;81.30
65034;DHT22;51601;51.356;12.458;2023-07-31T21:55:40;20.20;83.80
65034;DHT22;51601;51.356;12.458;2023-07-31T22:00:00;20.10;86.60
65034;DHT22;51601;51.356;12.458;2023-07-31T22:04:21;20.00;88.90
65034;DHT22;51601;51.356;12.458;2023-07-31T22:08:39;19.80;90.30
65034;DHT22;51601;51.356;12.458;2023-07-31T22:12:59;19.70;91.20
65034;DHT22;51601;51.356;12.458;2023-07-31T22:17:15;19.70;92.20
65034;DHT22;51601;51.356;12.458;2023-07-31T22:21:33;19.60;93.20
65034;DHT22;51601;51.356;12.458;2023-07-31T22:25:51;19.50;94.70
65034;DHT22;51601;51.356;12.458;2023-07-31T22:30:11;19.40;96.30
65034;DHT22;51601;51.356;12.458;2023-07-31T22:34:32;19.20;97.90
65034;DHT22;51601;51.356;12.458;2023-07-31T22:38:49;19.00;99.40
65034;DHT22;51601;51.356;12.458;2023-07-31T22:43:06;18.80;99.90
65034;DHT22;51601;51.356;12.458;2023-07-31T22:47:26;18.60;99.90
65034;DHT22;51601;51.356;12.458;2023-07-31T22:51:43;18.40;99.90
65034;DHT22;51601;51.356;12.458;2023-07-31T22:56:03;18.20;99.90
65034;DHT22;51601;51.356;12.458;2023-07-31T23:00:22;18.00;99.90
65034;DHT22;51601;51.356;12.458;2023-07-31T23:04:41;17.90;99.90
65034;DHT22;51601;51.356;12.458;2023-07-31T23:08:58;17.80;99.90
65034;DHT22;51601;51.356;12.458;2023-07-31T23:13:16;17.70;99.90
65034;DHT22;51601;51.356;12.458;2023-07-31T23:17:34;17.60;99.90
65034;DHT22;51601;51.356;12.458;2023-07-31T23:21:53;17.60;99.90
65034;DHT22;51601;51.356;12.458;2023-07-31T23:26:10;17.50;99.90
65034;DHT22;51601;51.356;12.458;2023-07-31T23:30:28;17.40;99.90
65034;DHT22;51601;51.356;12.458;2023-07-31T23:34:46;17.30;99.90
65034;DHT22;51601;51.356;12.458;2023-07-31T23:39:06;17.30;99.90
65034;DHT22;51601;51.356;12.458;2023-07-31T23:43:22;17.20;99.90
65034;DHT22;51601;51.356;12.458;2023-07-31T23:47:41;17.10;99.90
65034;DHT22;51601;51.356;12.458;2023-07-31T23:51:58;17.10;99.90
65034;DHT22;51601;51.356;12.458;2023-07-31T23:56:18;17.10;99.90
